createdAt,value
2017-05-03T00:01:00.183Z,84.70
2017-05-03T00:03:29.992Z,85.00
2017-05-03T00:05:59.093Z,84.50
2017-05-03T00:08:28.906Z,84.60
2017-05-03T00:10:58.724Z,84.30
2017-05-03T00:13:28.632Z,84.60
2017-05-03T00:15:58.457Z,84.70
2017-05-03T00:18:27.522Z,84.50
2017-05-03T00:20:56.569Z,84.40
2017-05-03T00:23:25.733Z,84.00
2017-05-03T00:25:55.559Z,84.00
2017-05-03T00:28:25.465Z,84.10
2017-05-03T00:30:55.285Z,83.80
2017-05-03T00:33:25.179Z,83.80
2017-05-03T00:35:54.291Z,84.20
2017-05-03T00:38:24.222Z,84.10
2017-05-03T00:40:53.329Z,84.20
2017-05-03T00:43:22.417Z,84.40
2017-05-03T00:45:51.493Z,84.40
2017-05-03T00:48:21.459Z,84.50
2017-05-03T00:50:50.503Z,84.80
2017-05-03T00:53:19.602Z,84.60
2017-05-03T00:55:49.431Z,84.60
2017-05-03T00:58:18.541Z,84.70
2017-05-03T01:00:47.671Z,84.40
2017-05-03T01:03:16.752Z,84.00
2017-05-03T01:05:45.826Z,83.90
2017-05-03T01:08:14.909Z,83.80
2017-05-03T01:10:44.106Z,84.20
2017-05-03T01:13:13.993Z,83.90
2017-05-03T01:15:43.146Z,83.80
2017-05-03T01:18:12.248Z,83.70
2017-05-03T01:20:41.333Z,83.50
2017-05-03T01:23:10.435Z,83.60
2017-05-03T01:25:39.485Z,83.60
2017-05-03T01:28:09.426Z,83.40
2017-05-03T01:30:38.530Z,83.00
2017-05-03T01:33:07.593Z,83.00
2017-05-03T01:35:37.405Z,83.20
2017-05-03T01:38:07.223Z,83.20
2017-05-03T01:40:37.031Z,83.00
2017-05-03T01:43:06.842Z,82.80
2017-05-03T01:45:36.649Z,82.80
2017-05-03T01:48:05.755Z,82.70
2017-05-03T01:50:35.553Z,83.40
2017-05-03T01:53:04.638Z,83.60
2017-05-03T01:55:33.745Z,83.70
2017-05-03T01:58:02.854Z,83.40
2017-05-03T02:00:32.663Z,83.00
2017-05-03T02:03:02.491Z,82.80
2017-05-03T02:05:32.390Z,82.90
2017-05-03T02:08:02.205Z,83.00
2017-05-03T02:10:32.007Z,82.90
2017-05-03T02:13:01.117Z,82.60
2017-05-03T02:15:30.924Z,82.80
2017-05-03T02:18:00.750Z,82.70
2017-05-03T02:20:30.663Z,83.20
2017-05-03T02:23:00.465Z,82.20
2017-05-03T02:25:30.397Z,82.40
2017-05-03T02:28:00.210Z,82.90
2017-05-03T02:30:30.017Z,83.10
2017-05-03T02:32:59.846Z,83.10
2017-05-03T02:35:29.045Z,82.80
2017-05-03T02:37:58.117Z,82.80
2017-05-03T02:40:27.939Z,83.20
2017-05-03T02:42:57.755Z,83.50
2017-05-03T02:45:27.670Z,83.20
2017-05-03T02:47:57.464Z,83.20
2017-05-03T02:50:26.574Z,82.90
2017-05-03T02:52:56.374Z,83.20
2017-05-03T02:55:26.432Z,82.50
2017-05-03T02:57:55.532Z,82.70
2017-05-03T03:00:24.694Z,83.20
2017-05-03T03:02:53.762Z,82.80
2017-05-03T03:05:22.885Z,82.50
2017-05-03T03:07:52.701Z,81.80
2017-05-03T03:10:22.571Z,81.40
2017-05-03T03:12:51.633Z,81.30
2017-05-03T03:15:20.734Z,80.60
2017-05-03T03:17:49.835Z,81.00
2017-05-03T03:20:18.919Z,81.00
2017-05-03T03:22:47.966Z,81.00
2017-05-03T03:25:17.091Z,81.60
2017-05-03T03:27:46.893Z,81.40
2017-05-03T03:30:16.689Z,81.90
2017-05-03T03:32:45.798Z,82.10
2017-05-03T03:35:14.897Z,81.50
2017-05-03T03:37:44.685Z,81.90
2017-05-03T03:40:13.760Z,81.30
2017-05-03T03:42:43.017Z,81.20
2017-05-03T03:45:12.819Z,81.10
2017-05-03T03:47:42.627Z,81.00
2017-05-03T03:50:11.730Z,81.40
2017-05-03T03:52:41.537Z,83.00
2017-05-03T03:55:10.581Z,81.90
2017-05-03T03:57:39.729Z,81.50
2017-05-03T04:00:09.655Z,81.10
2017-05-03T04:02:38.707Z,81.20
2017-05-03T04:05:07.763Z,81.20
2017-05-03T04:07:36.826Z,80.70
2017-05-03T04:10:05.963Z,80.50
2017-05-03T04:12:35.328Z,80.20
2017-05-03T04:15:04.639Z,79.80
2017-05-03T04:17:33.940Z,79.60
2017-05-03T04:20:03.728Z,79.60
2017-05-03T04:22:33.922Z,79.90
2017-05-03T04:25:03.354Z,80.50
2017-05-03T04:27:32.483Z,80.20
2017-05-03T04:30:02.294Z,81.40
2017-05-03T04:32:32.094Z,80.60
2017-05-03T04:35:01.910Z,80.40
2017-05-03T04:37:31.714Z,80.40
2017-05-03T04:40:00.825Z,80.70
2017-05-03T04:42:30.677Z,80.40
2017-05-03T04:44:59.864Z,81.70
2017-05-03T04:47:29.023Z,82.60
2017-05-03T04:49:58.820Z,82.30
2017-05-03T04:52:27.930Z,82.30
2017-05-03T04:54:57.719Z,82.30
2017-05-03T04:57:26.765Z,82.50
2017-05-03T04:59:55.814Z,82.30
2017-05-03T05:02:24.928Z,82.10
2017-05-03T05:04:54.006Z,82.10
2017-05-03T05:07:23.108Z,82.60
2017-05-03T05:09:52.179Z,82.40
2017-05-03T05:12:21.983Z,83.00
2017-05-03T05:14:51.789Z,83.50
2017-05-03T05:17:20.841Z,83.50
2017-05-03T05:19:50.007Z,82.10
2017-05-03T05:22:19.131Z,82.50
2017-05-03T05:24:48.171Z,82.60
2017-05-03T05:27:17.267Z,82.80
2017-05-03T05:29:46.399Z,83.70
2017-05-03T05:32:15.538Z,83.90
2017-05-03T05:34:44.662Z,83.70
2017-05-03T05:37:13.778Z,83.80
2017-05-03T05:39:42.880Z,82.90
2017-05-03T05:42:11.953Z,82.00
2017-05-03T05:44:41.756Z,81.80
2017-05-03T05:47:10.956Z,80.70
2017-05-03T05:49:40.061Z,80.10
2017-05-03T05:52:09.849Z,80.00
2017-05-03T05:54:38.980Z,79.10
2017-05-03T05:57:08.166Z,79.40
2017-05-03T05:59:37.967Z,79.00
2017-05-03T06:02:07.022Z,78.20
2017-05-03T06:04:36.373Z,78.60
2017-05-03T06:07:05.418Z,78.30
2017-05-03T06:09:34.577Z,78.50
2017-05-03T06:12:04.378Z,79.70
2017-05-03T06:14:33.471Z,81.80
2017-05-03T06:17:02.586Z,78.20
2017-05-03T06:19:32.496Z,77.90
2017-05-03T06:22:02.316Z,77.20
2017-05-03T06:24:31.391Z,77.00
2017-05-03T06:27:00.433Z,78.20
2017-05-03T06:29:29.596Z,76.50
2017-05-03T06:31:59.404Z,75.90
2017-05-03T06:34:29.253Z,76.80
2017-05-03T06:36:58.317Z,76.80
2017-05-03T06:39:28.237Z,76.30
2017-05-03T06:41:58.023Z,76.40
2017-05-03T06:44:27.138Z,76.30
2017-05-03T06:46:56.269Z,77.10
2017-05-03T06:49:26.082Z,76.20
2017-05-03T06:51:55.130Z,76.20
2017-05-03T06:54:24.203Z,76.20
2017-05-03T06:56:53.239Z,76.70
2017-05-03T06:59:22.308Z,76.60
2017-05-03T07:01:51.356Z,76.30
2017-05-03T07:04:20.435Z,76.20
2017-05-03T07:06:49.486Z,75.90
2017-05-03T07:09:18.660Z,75.90
2017-05-03T07:11:48.469Z,75.00
2017-05-03T07:14:18.387Z,74.80
2017-05-03T07:16:48.189Z,75.00
2017-05-03T07:19:18.005Z,75.30
2017-05-03T07:21:47.816Z,73.50
2017-05-03T07:24:17.651Z,72.50
2017-05-03T07:26:46.730Z,73.10
2017-05-03T07:29:15.772Z,72.60
2017-05-03T07:31:44.896Z,72.00
2017-05-03T07:34:14.696Z,71.80
2017-05-03T07:36:43.760Z,71.40
2017-05-03T07:39:12.798Z,71.20
2017-05-03T07:41:42.191Z,69.90
2017-05-03T07:44:11.243Z,69.40
2017-05-03T07:46:40.317Z,68.90
2017-05-03T07:49:09.356Z,69.30
2017-05-03T07:51:38.429Z,69.40
2017-05-03T07:54:07.481Z,69.30
2017-05-03T07:56:37.283Z,68.50
2017-05-03T07:59:07.107Z,67.80
2017-05-03T08:01:36.930Z,68.30
2017-05-03T08:04:06.005Z,67.60
2017-05-03T08:06:35.789Z,67.20
2017-05-03T08:09:04.919Z,68.10
2017-05-03T08:11:34.741Z,67.60
2017-05-03T08:14:04.634Z,66.30
2017-05-03T08:16:33.670Z,66.60
2017-05-03T08:19:02.723Z,66.50
2017-05-03T08:21:31.782Z,65.70
2017-05-03T08:24:00.892Z,65.70
2017-05-03T08:26:29.959Z,64.90
2017-05-03T08:28:59.002Z,65.30
2017-05-03T08:31:28.067Z,64.60
2017-05-03T08:33:57.216Z,64.60
2017-05-03T08:36:27.121Z,64.40
2017-05-03T08:38:56.925Z,64.20
2017-05-03T08:41:25.977Z,64.30
2017-05-03T08:43:55.027Z,64.10
2017-05-03T08:46:24.839Z,64.50
2017-05-03T08:48:54.629Z,65.50
2017-05-03T08:51:23.690Z,64.90
2017-05-03T08:53:52.735Z,65.30
2017-05-03T08:56:22.558Z,64.10
2017-05-03T08:58:52.348Z,63.00
2017-05-03T09:01:21.471Z,62.40
2017-05-03T09:03:51.264Z,61.00
2017-05-03T09:06:20.377Z,62.20
2017-05-03T09:08:50.194Z,60.90
2017-05-03T09:11:20.101Z,60.30
2017-05-03T09:13:49.925Z,61.30
2017-05-03T09:16:19.829Z,59.50
2017-05-03T09:18:49.637Z,58.50
2017-05-03T09:21:18.733Z,58.70
2017-05-03T09:23:48.547Z,58.40
2017-05-03T09:26:17.584Z,57.50
2017-05-03T09:28:46.855Z,58.30
2017-05-03T09:31:16.666Z,57.40
2017-05-03T09:33:45.741Z,57.00
2017-05-03T09:36:14.857Z,55.50
2017-05-03T09:38:44.636Z,56.00
2017-05-03T09:41:13.703Z,55.90
2017-05-03T09:43:42.762Z,56.30
2017-05-03T09:46:11.821Z,55.50
2017-05-03T09:48:40.861Z,56.50
2017-05-03T09:51:09.933Z,55.50
2017-05-03T09:53:39.856Z,55.80
2017-05-03T09:56:09.773Z,55.70
2017-05-03T09:58:39.557Z,55.80
2017-05-03T10:01:08.671Z,56.10
2017-05-03T10:03:38.497Z,56.20
2017-05-03T10:06:08.310Z,54.70
2017-05-03T10:08:38.127Z,55.10
2017-05-03T10:11:07.216Z,56.40
2017-05-03T10:13:37.029Z,55.20
2017-05-03T10:16:06.829Z,55.90
2017-05-03T10:18:36.618Z,55.60
2017-05-03T10:21:05.685Z,57.20
2017-05-03T10:23:34.843Z,56.60
2017-05-03T10:26:04.658Z,56.30
2017-05-03T10:28:34.573Z,55.40
2017-05-03T10:31:04.376Z,54.40
2017-05-03T10:33:34.294Z,54.70
2017-05-03T10:36:04.079Z,54.70
2017-05-03T10:38:33.122Z,54.50
2017-05-03T10:41:02.205Z,54.20
2017-05-03T10:43:32.008Z,53.10
2017-05-03T10:46:01.495Z,52.80
2017-05-03T10:48:30.606Z,52.20
2017-05-03T10:51:00.428Z,53.20
2017-05-03T10:53:30.245Z,52.90
2017-05-03T10:56:00.040Z,52.80
2017-05-03T10:58:30.012Z,53.40
2017-05-03T11:00:59.063Z,54.00
2017-05-03T11:03:28.865Z,53.90
2017-05-03T11:05:58.665Z,52.30
2017-05-03T11:08:27.712Z,51.00
2017-05-03T11:10:56.882Z,50.90
2017-05-03T11:13:26.698Z,50.80
2017-05-03T11:15:56.620Z,50.50
2017-05-03T11:18:26.521Z,50.20
2017-05-03T11:20:56.330Z,49.80
2017-05-03T11:23:25.430Z,50.60
2017-05-03T11:25:55.440Z,50.70
2017-05-03T11:28:24.577Z,50.80
2017-05-03T11:30:53.738Z,51.30
2017-05-03T11:33:23.560Z,49.20
2017-05-03T11:35:53.383Z,48.90
2017-05-03T11:38:23.192Z,47.20
2017-05-03T11:40:53.093Z,47.80
2017-05-03T11:43:22.881Z,48.00
2017-05-03T11:45:51.921Z,47.70
2017-05-03T11:48:21.002Z,46.30
2017-05-03T11:50:50.804Z,47.10
2017-05-03T11:53:19.875Z,47.00
2017-05-03T11:55:48.926Z,49.60
2017-05-03T11:58:17.967Z,48.20
2017-05-03T12:00:47.035Z,48.50
2017-05-03T12:03:16.081Z,48.20
2017-05-03T12:05:45.184Z,46.70
2017-05-03T12:08:14.993Z,46.60
2017-05-03T12:10:44.810Z,46.30
2017-05-03T12:13:14.735Z,47.90
2017-05-03T12:15:44.522Z,49.70
2017-05-03T12:18:13.638Z,50.60
2017-05-03T12:20:43.425Z,48.20
2017-05-03T12:23:12.546Z,46.00
2017-05-03T12:25:41.611Z,46.20
2017-05-03T12:28:10.685Z,45.50
2017-05-03T12:30:40.503Z,46.80
2017-05-03T12:33:10.313Z,47.60
2017-05-03T12:35:39.361Z,47.30
2017-05-03T12:38:08.418Z,47.70
2017-05-03T12:40:37.502Z,46.30
2017-05-03T12:43:07.408Z,46.10
2017-05-03T12:45:37.202Z,46.40
2017-05-03T12:48:06.326Z,46.80
2017-05-03T12:50:36.134Z,44.00
2017-05-03T12:53:05.941Z,41.60
2017-05-03T12:55:35.771Z,39.40
2017-05-03T12:58:04.045Z,38.70
2017-05-03T13:00:33.841Z,35.60
2017-05-03T13:03:02.893Z,36.20
2017-05-03T13:05:31.943Z,38.30
2017-05-03T13:08:01.860Z,41.80
2017-05-03T13:10:31.650Z,42.80
2017-05-03T13:13:00.770Z,42.40
2017-05-03T13:15:30.679Z,41.50
2017-05-03T13:18:00.484Z,40.60
2017-05-03T13:20:30.350Z,40.60
2017-05-03T13:22:59.387Z,42.50
2017-05-03T13:25:28.448Z,45.20
2017-05-03T13:27:57.603Z,46.70
2017-05-03T13:30:27.421Z,47.20
2017-05-03T13:32:57.222Z,47.70
2017-05-03T13:35:27.027Z,47.80
2017-05-03T13:37:56.854Z,48.50
2017-05-03T13:40:25.940Z,48.70
2017-05-03T13:42:55.749Z,49.10
2017-05-03T13:45:25.559Z,49.40
2017-05-03T13:47:55.356Z,51.40
2017-05-03T13:50:24.485Z,53.10
2017-05-03T13:52:53.521Z,55.40
2017-05-03T13:55:22.559Z,56.50
2017-05-03T13:57:52.370Z,56.60
2017-05-03T14:00:21.543Z,57.50
2017-05-03T14:02:50.680Z,57.60
2017-05-03T14:05:19.737Z,57.30
2017-05-03T14:07:48.880Z,56.60
2017-05-03T14:10:18.780Z,57.50
2017-05-03T14:12:48.572Z,57.50
2017-05-03T14:15:17.686Z,57.10
2017-05-03T14:17:47.499Z,57.40
2017-05-03T14:20:17.348Z,57.50
2017-05-03T14:22:46.389Z,57.90
2017-05-03T14:25:15.438Z,58.00
2017-05-03T14:27:44.606Z,58.00
2017-05-03T14:30:14.426Z,57.60
2017-05-03T14:32:43.498Z,57.20
2017-05-03T14:35:12.629Z,56.80
2017-05-03T14:37:41.898Z,56.50
2017-05-03T14:40:11.004Z,56.90
2017-05-03T14:42:40.808Z,56.20
2017-05-03T14:45:10.621Z,57.00
2017-05-03T14:47:40.406Z,57.00
2017-05-03T14:50:09.546Z,56.70
2017-05-03T14:52:39.348Z,57.50
2017-05-03T14:55:09.165Z,58.20
2017-05-03T14:57:38.960Z,58.10
2017-05-03T15:00:08.017Z,59.20
2017-05-03T15:02:37.260Z,59.10
2017-05-03T15:05:06.371Z,59.10
2017-05-03T15:07:36.162Z,59.30
2017-05-03T15:10:05.226Z,59.00
2017-05-03T15:12:34.266Z,58.40
2017-05-03T15:15:04.065Z,58.20
2017-05-03T15:17:33.118Z,57.90
2017-05-03T15:20:02.272Z,57.70
2017-05-03T15:22:32.053Z,57.60
2017-05-03T15:25:01.094Z,57.50
2017-05-03T15:27:30.182Z,58.40
2017-05-03T15:29:59.984Z,57.80
2017-05-03T15:32:29.814Z,58.20
2017-05-03T15:34:58.894Z,57.60
2017-05-03T15:37:28.683Z,57.70
2017-05-03T15:39:57.746Z,58.00
2017-05-03T15:42:26.792Z,58.20
2017-05-03T15:44:56.601Z,58.60
2017-05-03T15:47:26.479Z,58.30
2017-05-03T15:49:55.634Z,58.30
2017-05-03T15:52:24.698Z,57.70
2017-05-03T15:54:53.806Z,57.30
2017-05-03T15:57:23.614Z,57.10
2017-05-03T15:59:52.823Z,55.90
2017-05-03T16:02:21.929Z,56.20
2017-05-03T16:04:51.829Z,56.30
2017-05-03T16:07:21.634Z,56.00
2017-05-03T16:09:50.689Z,56.10
2017-05-03T16:12:19.753Z,55.40
2017-05-03T16:14:49.564Z,55.50
2017-05-03T16:17:18.659Z,55.70
2017-05-03T16:19:48.557Z,56.00
2017-05-03T16:22:18.377Z,56.70
2017-05-03T16:24:48.293Z,55.80
2017-05-03T16:27:18.116Z,56.90
2017-05-03T16:29:47.196Z,56.90
2017-05-03T16:32:17.120Z,57.40
2017-05-03T16:34:46.941Z,56.90
2017-05-03T16:37:16.021Z,56.50
2017-05-03T16:39:45.837Z,57.10
2017-05-03T16:42:15.749Z,56.60
2017-05-03T16:44:45.675Z,56.80
2017-05-03T16:47:15.490Z,56.20
2017-05-03T16:49:44.568Z,56.30
2017-05-03T16:52:13.683Z,56.00
2017-05-03T16:54:43.586Z,56.20
2017-05-03T16:57:13.398Z,56.40
2017-05-03T16:59:43.205Z,56.60
2017-05-03T17:02:13.016Z,56.40
2017-05-03T17:04:42.070Z,56.60
2017-05-03T17:07:11.129Z,56.60
2017-05-03T17:09:40.185Z,56.80
2017-05-03T17:12:09.275Z,57.20
2017-05-03T17:14:38.399Z,57.50
2017-05-03T17:17:08.210Z,57.50
2017-05-03T17:19:38.001Z,57.60
2017-05-03T17:22:07.126Z,57.50
2017-05-03T17:24:36.914Z,57.50
2017-05-03T17:27:06.046Z,58.30
2017-05-03T17:29:35.842Z,57.60
2017-05-03T17:32:05.661Z,58.30
2017-05-03T17:34:35.467Z,58.20
2017-05-03T17:37:05.289Z,58.20
2017-05-03T17:39:35.212Z,58.40
2017-05-03T17:42:05.026Z,58.60
2017-05-03T17:44:34.929Z,58.60
2017-05-03T17:47:04.841Z,59.10
2017-05-03T17:49:34.628Z,58.90
2017-05-03T17:52:03.698Z,59.20
2017-05-03T17:54:32.940Z,59.30
2017-05-03T17:57:02.045Z,58.80
2017-05-03T17:59:31.875Z,59.00
2017-05-03T18:02:00.938Z,59.60
2017-05-03T18:04:29.990Z,59.60
2017-05-03T18:06:59.146Z,60.00
2017-05-03T18:09:28.960Z,60.10
2017-05-03T18:11:58.760Z,59.60
2017-05-03T18:14:27.843Z,59.70
2017-05-03T18:16:56.890Z,59.70
2017-05-03T18:19:25.966Z,59.40
2017-05-03T18:21:55.878Z,59.50
2017-05-03T18:24:25.657Z,59.50
2017-05-03T18:26:54.754Z,59.40
2017-05-03T18:29:23.817Z,59.60
2017-05-03T18:31:53.020Z,59.30
2017-05-03T18:34:22.176Z,59.50
2017-05-03T18:36:51.966Z,59.90
2017-05-03T18:39:21.049Z,59.40
2017-05-03T18:41:50.175Z,59.70
2017-05-03T18:44:19.281Z,60.30
2017-05-03T18:46:49.094Z,60.80
2017-05-03T18:49:18.910Z,60.90
2017-05-03T18:51:48.714Z,61.50
2017-05-03T18:54:18.502Z,61.40
2017-05-03T18:56:47.574Z,61.70
2017-05-03T18:59:16.734Z,62.00
2017-05-03T19:01:45.825Z,61.80
2017-05-03T19:04:14.883Z,62.20
2017-05-03T19:06:43.925Z,62.40
2017-05-03T19:09:12.994Z,62.20
2017-05-03T19:11:42.793Z,62.10
2017-05-03T19:14:11.926Z,62.50
2017-05-03T19:16:40.979Z,62.80
2017-05-03T19:19:10.070Z,62.50
2017-05-03T19:21:39.108Z,61.90
2017-05-03T19:24:08.260Z,61.80
2017-05-03T19:26:38.062Z,61.60
2017-05-03T19:29:07.985Z,62.60
2017-05-03T19:31:37.078Z,62.10
2017-05-03T19:34:06.897Z,62.70
2017-05-03T19:36:36.702Z,62.00
2017-05-03T19:39:06.821Z,61.10
2017-05-03T19:41:36.718Z,61.50
2017-05-03T19:44:05.786Z,61.10
2017-05-03T19:46:34.943Z,61.20
2017-05-03T19:49:04.852Z,60.70
2017-05-03T19:51:33.937Z,60.70
2017-05-03T19:54:03.767Z,59.50
2017-05-03T19:56:32.850Z,59.30
2017-05-03T19:59:02.659Z,59.00
2017-05-03T20:04:01.965Z,58.90
2017-05-03T20:06:31.008Z,58.40
2017-05-03T20:09:00.263Z,58.20
2017-05-03T20:11:29.363Z,58.20
2017-05-03T20:13:59.169Z,58.20
2017-05-03T20:16:28.217Z,57.80
2017-05-03T20:18:57.363Z,57.70
2017-05-03T20:21:26.459Z,57.50
2017-05-03T20:23:55.656Z,57.50
2017-05-03T20:26:24.681Z,58.00
2017-05-03T20:28:53.761Z,58.20
2017-05-03T20:33:52.765Z,58.50
2017-05-03T20:36:21.868Z,58.60
2017-05-03T20:38:51.022Z,58.70
2017-05-03T20:41:20.124Z,58.80
2017-05-03T20:43:49.242Z,58.60
2017-05-03T20:46:18.347Z,59.00
2017-05-03T20:48:48.191Z,59.10
2017-05-03T20:51:17.305Z,59.40
2017-05-03T20:53:46.352Z,59.60
2017-05-03T20:56:16.195Z,59.50
2017-05-03T20:58:45.242Z,59.30
2017-05-03T21:01:14.348Z,59.70
2017-05-03T21:03:43.562Z,59.50
2017-05-03T21:06:13.453Z,60.00
2017-05-03T21:08:42.570Z,60.00
2017-05-03T21:11:12.376Z,59.80
2017-05-03T21:13:42.185Z,59.90
2017-05-03T21:16:11.982Z,60.20
2017-05-03T21:18:41.045Z,60.30
2017-05-03T21:21:10.211Z,59.80
2017-05-03T21:23:40.011Z,59.90
2017-05-03T21:26:09.918Z,59.70
2017-05-03T21:28:39.001Z,60.40
2017-05-03T21:31:11.982Z,60.50
2017-05-03T21:33:41.045Z,60.30
2017-05-03T21:36:10.302Z,60.10
2017-05-03T21:38:40.837Z,60.70
2017-05-03T21:41:10.612Z,61.60
2017-05-03T21:43:39.707Z,59.80
2017-05-03T21:46:08.815Z,61.60
2017-05-03T21:48:37.898Z,60.50
2017-05-03T21:51:07.004Z,60.50
2017-05-03T21:53:36.160Z,59.40
2017-05-03T21:56:05.277Z,59.70
2017-05-03T21:58:34.392Z,59.20
2017-05-03T22:01:03.473Z,59.90
2017-05-03T22:03:32.643Z,59.00
2017-05-03T22:06:01.729Z,58.60
2017-05-03T22:08:30.904Z,58.70
2017-05-03T22:11:00.127Z,59.00
2017-05-03T22:13:29.186Z,58.40
2017-05-03T22:15:58.356Z,58.90
2017-05-03T22:18:27.510Z,59.10
2017-05-03T22:20:57.320Z,59.50
2017-05-03T22:23:27.128Z,59.20
2017-05-03T22:25:56.942Z,59.00
2017-05-03T22:28:26.725Z,59.20
2017-05-03T22:30:56.698Z,59.50
2017-05-03T22:33:25.777Z,59.60
2017-05-03T22:35:54.936Z,59.60
2017-05-03T22:38:24.717Z,59.70
2017-05-03T22:40:53.851Z,59.00
2017-05-03T22:43:23.663Z,59.10
2017-05-03T22:45:53.578Z,58.30
2017-05-03T22:48:23.350Z,58.80
2017-05-03T22:50:52.486Z,58.50
2017-05-03T22:53:22.304Z,58.80
2017-05-03T22:55:52.118Z,57.90
2017-05-03T22:58:22.017Z,58.10
2017-05-03T23:00:51.816Z,58.50
2017-05-03T23:03:20.888Z,57.80
2017-05-03T23:05:50.013Z,57.70
2017-05-03T23:08:19.119Z,58.80
2017-05-03T23:10:48.897Z,57.80
2017-05-03T23:13:18.049Z,58.00
2017-05-03T23:15:47.132Z,59.10
2017-05-03T23:18:16.919Z,58.50
2017-05-03T23:20:46.132Z,57.80
2017-05-03T23:23:15.940Z,58.60
2017-05-03T23:25:45.063Z,57.70
2017-05-03T23:28:14.983Z,57.90
2017-05-03T23:30:44.054Z,58.40
2017-05-03T23:33:13.149Z,57.80
2017-05-03T23:35:42.961Z,58.70
2017-05-03T23:38:12.778Z,58.50
2017-05-03T23:40:41.816Z,58.10
2017-05-03T23:43:10.879Z,58.70
2017-05-03T23:45:40.673Z,58.50
2017-05-03T23:48:09.733Z,58.80
2017-05-03T23:50:38.785Z,58.90
2017-05-03T23:53:07.860Z,58.50
2017-05-03T23:55:36.961Z,58.80
2017-05-03T23:58:06.771Z,58.70
